createdAt,value
2018-10-17T00:00:54.858Z,60.33
2018-10-17T00:01:55.070Z,60.11
2018-10-17T00:02:55.293Z,60.33
2018-10-17T00:03:55.521Z,59.74
2018-10-17T00:04:55.755Z,60.21
2018-10-17T00:05:55.974Z,60.11
2018-10-17T00:06:56.246Z,60.49
2018-10-17T00:07:56.424Z,60.11
2018-10-17T00:08:56.647Z,60.02
2018-10-17T00:09:56.872Z,60.40
2018-10-17T00:10:57.108Z,60.49
2018-10-17T00:11:57.321Z,60.49
2018-10-17T00:12:57.554Z,60.37
2018-10-17T00:13:57.770Z,60.40
2018-10-17T00:14:58.000Z,60.37
2018-10-17T00:15:58.227Z,60.56
2018-10-17T00:16:58.499Z,60.75
2018-10-17T00:17:58.675Z,60.75
2018-10-17T00:18:58.916Z,60.69
2018-10-17T00:19:59.125Z,60.49
2018-10-17T00:20:59.356Z,60.59
2018-10-17T00:21:59.575Z,60.21
2018-10-17T00:22:59.857Z,60.59
2018-10-17T00:24:00.037Z,60.40
2018-10-17T00:25:00.275Z,60.11
2018-10-17T00:26:00.477Z,60.11
2018-10-17T00:27:00.705Z,60.59
2018-10-17T00:28:00.928Z,60.21
2018-10-17T00:29:01.170Z,60.21
2018-10-17T00:30:01.385Z,60.49
2018-10-17T00:31:01.636Z,60.49
2018-10-17T00:32:01.831Z,60.78
2018-10-17T00:33:02.057Z,60.59
2018-10-17T00:34:02.286Z,60.59
2018-10-17T00:35:02.553Z,60.78
2018-10-17T00:36:02.735Z,60.30
2018-10-17T00:37:03.036Z,60.78
2018-10-17T00:38:03.189Z,60.59
2018-10-17T00:39:03.415Z,60.69
2018-10-17T00:40:03.641Z,61.25
2018-10-17T00:41:03.937Z,60.78
2018-10-17T00:42:04.094Z,61.13
2018-10-17T00:43:04.338Z,61.25
2018-10-17T00:44:04.547Z,60.94
2018-10-17T00:45:04.768Z,61.04
2018-10-17T00:46:04.995Z,61.42
2018-10-17T00:47:05.263Z,61.70
2018-10-17T00:48:05.444Z,61.70
2018-10-17T00:49:05.713Z,61.35
2018-10-17T00:50:05.898Z,61.80
2018-10-17T00:51:06.123Z,61.16
2018-10-17T00:52:06.347Z,61.13
2018-10-17T00:53:06.663Z,61.35
2018-10-17T00:54:06.803Z,61.45
2018-10-17T00:55:07.082Z,61.35
2018-10-17T00:56:07.250Z,61.35
2018-10-17T00:57:07.478Z,61.45
2018-10-17T00:58:07.703Z,61.64
2018-10-17T00:59:07.961Z,61.54
2018-10-17T01:00:08.153Z,61.83
2018-10-17T01:01:08.445Z,61.93
2018-10-17T01:02:08.626Z,62.88
2018-10-17T01:03:08.829Z,62.78
2018-10-17T01:04:09.056Z,62.88
2018-10-17T01:05:09.318Z,63.07
2018-10-17T01:06:09.494Z,63.07
2018-10-17T01:07:09.784Z,63.17
2018-10-17T01:08:09.949Z,62.78
2018-10-17T01:09:10.172Z,62.78
2018-10-17T01:10:10.398Z,63.29
2018-10-17T01:11:10.629Z,63.64
2018-10-17T01:12:10.851Z,64.05
2018-10-17T01:13:11.166Z,63.54
2018-10-17T01:14:11.300Z,63.64
2018-10-17T01:15:11.526Z,64.12
2018-10-17T01:16:11.751Z,63.73
2018-10-17T01:17:12.070Z,63.92
2018-10-17T01:18:12.203Z,63.73
2018-10-17T01:19:12.482Z,64.34
2018-10-17T01:20:12.657Z,64.43
2018-10-17T01:21:12.883Z,64.81
2018-10-17T01:22:13.116Z,64.15
2018-10-17T01:23:13.355Z,64.24
2018-10-17T01:24:13.558Z,64.81
2018-10-17T01:25:13.816Z,64.81
2018-10-17T01:26:14.010Z,64.81
2018-10-17T01:27:14.244Z,64.43
2018-10-17T01:28:14.460Z,64.62
2018-10-17T01:29:14.801Z,64.53
2018-10-17T01:30:14.911Z,64.81
2018-10-17T01:31:15.221Z,64.81
2018-10-17T01:32:15.365Z,64.62
2018-10-17T01:33:15.587Z,64.81
2018-10-17T01:34:15.814Z,64.62
2018-10-17T01:35:16.039Z,64.50
2018-10-17T01:36:16.278Z,64.87
2018-10-17T01:37:16.570Z,64.40
2018-10-17T01:38:16.729Z,63.73
2018-10-17T01:39:16.957Z,63.07
2018-10-17T01:40:17.196Z,63.96
2018-10-17T01:41:17.476Z,63.76
2018-10-17T01:42:17.636Z,63.76
2018-10-17T01:43:17.912Z,64.24
2018-10-17T01:44:18.090Z,63.83
2018-10-17T01:45:18.316Z,63.07
2018-10-17T01:46:18.544Z,63.17
2018-10-17T01:47:18.766Z,63.45
2018-10-17T01:48:18.991Z,62.21
2018-10-17T01:49:19.217Z,62.59
2018-10-17T01:50:19.445Z,62.08
2018-10-17T01:51:19.668Z,61.70
2018-10-17T01:52:19.894Z,61.90
2018-10-17T01:53:20.120Z,61.90
2018-10-17T01:54:20.343Z,62.12
2018-10-17T01:55:20.572Z,62.68
2018-10-17T01:56:20.796Z,62.68
2018-10-17T01:57:21.024Z,62.85
2018-10-17T01:58:21.250Z,62.56
2018-10-17T01:59:21.477Z,62.02
2018-10-17T02:00:21.701Z,62.49
2018-10-17T02:01:21.927Z,62.40
2018-10-17T02:02:22.155Z,62.30
2018-10-17T02:03:22.382Z,62.56
2018-10-17T02:04:22.604Z,62.49
2018-10-17T02:05:22.831Z,63.04
2018-10-17T02:06:23.062Z,63.04
2018-10-17T02:07:23.285Z,62.85
2018-10-17T02:08:23.510Z,63.04
2018-10-17T02:09:23.733Z,62.97
2018-10-17T02:10:23.962Z,63.13
2018-10-17T02:11:24.188Z,63.04
2018-10-17T02:12:24.412Z,63.13
2018-10-17T02:13:24.636Z,63.13
2018-10-17T02:14:24.863Z,63.13
2018-10-17T02:15:25.091Z,63.04
2018-10-17T02:16:25.323Z,63.23
2018-10-17T02:17:25.543Z,63.13
2018-10-17T02:18:25.767Z,63.04
2018-10-17T02:19:25.992Z,62.85
2018-10-17T02:20:26.221Z,63.26
2018-10-17T02:21:26.444Z,63.23
2018-10-17T02:22:26.667Z,63.23
2018-10-17T02:23:26.893Z,63.26
2018-10-17T02:24:27.119Z,64.21
2018-10-17T02:25:27.348Z,63.73
2018-10-17T02:26:27.571Z,64.02
2018-10-17T02:27:27.799Z,64.12
2018-10-17T02:28:28.020Z,64.02
2018-10-17T02:29:28.251Z,64.78
2018-10-17T02:30:28.476Z,64.40
2018-10-17T02:31:28.702Z,64.50
2018-10-17T02:32:28.928Z,64.40
2018-10-17T02:33:29.154Z,64.40
2018-10-17T02:34:29.380Z,63.89
2018-10-17T02:35:29.602Z,64.18
2018-10-17T02:36:29.828Z,63.89
2018-10-17T02:37:30.054Z,64.08
2018-10-17T02:38:30.281Z,63.51
2018-10-17T02:39:30.560Z,64.08
2018-10-17T02:40:30.736Z,63.23
2018-10-17T02:41:30.966Z,63.51
2018-10-17T02:42:31.186Z,64.28
2018-10-17T02:43:31.411Z,63.80
2018-10-17T02:44:31.639Z,64.08
2018-10-17T02:45:31.863Z,64.18
2018-10-17T02:46:32.090Z,63.99
2018-10-17T02:47:32.317Z,64.08
2018-10-17T02:48:32.542Z,63.80
2018-10-17T02:49:32.769Z,64.18
2018-10-17T02:50:32.997Z,63.89
2018-10-17T02:51:33.225Z,64.28
2018-10-17T02:52:33.448Z,63.89
2018-10-17T02:53:33.675Z,64.28
2018-10-17T02:54:33.899Z,63.89
2018-10-17T02:55:34.127Z,64.28
2018-10-17T02:56:34.350Z,64.18
2018-10-17T02:57:34.580Z,64.65
2018-10-17T02:58:34.802Z,64.47
2018-10-17T02:59:35.030Z,64.37
2018-10-17T03:00:35.256Z,64.47
2018-10-17T03:01:35.486Z,64.75
2018-10-17T03:02:35.706Z,64.65
2018-10-17T03:03:35.949Z,64.84
2018-10-17T03:04:36.175Z,64.56
2018-10-17T03:05:36.403Z,64.37
2018-10-17T03:06:36.628Z,64.37
2018-10-17T03:07:36.854Z,64.59
2018-10-17T03:08:37.082Z,64.75
2018-10-17T03:09:37.306Z,64.69
2018-10-17T03:10:37.531Z,64.37
2018-10-17T03:11:37.755Z,64.65
2018-10-17T03:12:37.986Z,64.65
2018-10-17T03:13:38.207Z,65.13
2018-10-17T03:14:38.431Z,65.23
2018-10-17T03:15:38.662Z,65.03
2018-10-17T03:16:38.886Z,64.56
2018-10-17T03:17:39.111Z,65.13
2018-10-17T03:18:39.338Z,65.23
2018-10-17T03:19:39.561Z,65.32
2018-10-17T03:20:39.786Z,65.32
2018-10-17T03:21:40.013Z,65.13
2018-10-17T03:22:40.240Z,64.84
2018-10-17T03:23:40.467Z,65.13
2018-10-17T03:24:40.693Z,65.13
2018-10-17T03:25:40.941Z,65.32
2018-10-17T03:26:41.145Z,65.03
2018-10-17T03:27:41.411Z,65.16
2018-10-17T03:28:41.597Z,64.97
2018-10-17T03:29:41.824Z,64.94
2018-10-17T03:30:42.052Z,65.13
2018-10-17T03:31:42.280Z,64.94
2018-10-17T03:32:42.579Z,65.70
2018-10-17T03:33:42.731Z,65.32
2018-10-17T03:34:42.955Z,66.02
2018-10-17T03:35:43.215Z,65.70
2018-10-17T03:36:43.406Z,66.11
2018-10-17T03:37:43.634Z,65.45
2018-10-17T03:38:43.859Z,65.83
2018-10-17T03:39:44.085Z,65.73
2018-10-17T03:40:44.312Z,65.92
2018-10-17T03:41:44.537Z,66.11
2018-10-17T03:42:44.763Z,65.83
2018-10-17T03:43:44.990Z,65.92
2018-10-17T03:44:45.216Z,65.73
2018-10-17T03:45:45.442Z,66.02
2018-10-17T03:46:45.668Z,66.50
2018-10-17T03:47:45.895Z,65.92
2018-10-17T03:48:46.120Z,66.21
2018-10-17T03:49:46.406Z,66.88
2018-10-17T03:50:46.570Z,67.16
2018-10-17T03:51:46.799Z,67.16
2018-10-17T03:52:47.027Z,66.59
2018-10-17T03:53:47.254Z,65.83
2018-10-17T03:54:47.484Z,65.83
2018-10-17T03:55:47.707Z,66.21
2018-10-17T03:56:47.936Z,66.78
2018-10-17T03:57:48.158Z,66.59
2018-10-17T03:58:48.382Z,67.45
2018-10-17T03:59:48.714Z,67.41
2018-10-17T04:00:48.839Z,67.41
2018-10-17T04:01:49.064Z,67.13
2018-10-17T04:02:49.298Z,67.03
2018-10-17T04:03:49.523Z,66.85
2018-10-17T04:04:49.746Z,66.75
2018-10-17T04:05:49.969Z,66.66
2018-10-17T04:06:50.198Z,66.94
2018-10-17T04:07:50.424Z,66.75
2018-10-17T04:08:50.649Z,66.94
2018-10-17T04:09:50.876Z,65.99
2018-10-17T04:10:51.102Z,65.70
2018-10-17T04:11:51.327Z,66.08
2018-10-17T04:12:51.606Z,65.80
2018-10-17T04:13:51.783Z,65.61
2018-10-17T04:14:52.008Z,66.27
2018-10-17T04:15:52.235Z,65.61
2018-10-17T04:16:52.517Z,66.08
2018-10-17T04:17:52.684Z,65.67
2018-10-17T04:18:52.960Z,66.14
2018-10-17T04:19:53.137Z,65.86
2018-10-17T04:20:53.365Z,66.18
2018-10-17T04:21:53.591Z,66.18
2018-10-17T04:22:53.855Z,65.67
2018-10-17T04:23:54.041Z,66.08
2018-10-17T04:24:54.310Z,66.18
2018-10-17T04:25:54.490Z,66.66
2018-10-17T04:26:54.718Z,66.75
2018-10-17T04:27:54.941Z,66.94
2018-10-17T04:28:55.196Z,66.91
2018-10-17T04:29:55.394Z,65.95
2018-10-17T04:30:55.661Z,66.37
2018-10-17T04:31:55.848Z,66.37
2018-10-17T04:32:56.074Z,66.46
2018-10-17T04:33:56.298Z,66.18
2018-10-17T04:34:56.555Z,65.99
2018-10-17T04:35:56.787Z,66.24
2018-10-17T04:36:57.023Z,66.94
2018-10-17T04:37:57.221Z,66.94
2018-10-17T04:38:57.434Z,66.24
2018-10-17T04:39:57.661Z,66.62
2018-10-17T04:40:57.932Z,66.91
2018-10-17T04:41:58.115Z,66.53
2018-10-17T04:42:58.358Z,66.81
2018-10-17T04:43:58.569Z,66.43
2018-10-17T04:44:58.795Z,66.72
2018-10-17T04:45:59.022Z,66.81
2018-10-17T04:46:59.262Z,66.81
2018-10-17T04:47:59.474Z,66.81
2018-10-17T04:48:59.736Z,66.62
2018-10-17T04:49:59.927Z,66.62
2018-10-17T04:51:00.154Z,66.81
2018-10-17T04:52:00.383Z,67.29
2018-10-17T04:53:00.631Z,67.10
2018-10-17T04:54:00.850Z,67.10
2018-10-17T04:55:01.152Z,67.19
2018-10-17T04:56:01.305Z,67.38
2018-10-17T04:57:01.530Z,67.47
2018-10-17T04:58:01.757Z,67.38
2018-10-17T04:59:02.059Z,67.10
2018-10-17T05:00:02.216Z,67.29
2018-10-17T05:01:02.475Z,67.29
2018-10-17T05:02:02.662Z,67.19
2018-10-17T05:03:02.891Z,67.10
2018-10-17T05:04:03.117Z,67.57
2018-10-17T05:05:03.437Z,67.57
2018-10-17T05:06:03.569Z,67.47
2018-10-17T05:07:03.812Z,67.86
2018-10-17T05:08:04.021Z,67.67
2018-10-17T05:09:04.252Z,67.76
2018-10-17T05:10:04.476Z,67.89
2018-10-17T05:11:04.768Z,67.67
2018-10-17T05:12:04.929Z,67.57
2018-10-17T05:13:05.193Z,67.29
2018-10-17T05:14:05.381Z,67.29
2018-10-17T05:15:05.621Z,67.67
2018-10-17T05:16:05.835Z,67.57
2018-10-17T05:17:06.068Z,67.76
2018-10-17T05:18:06.285Z,67.51
2018-10-17T05:19:06.537Z,67.95
2018-10-17T05:20:06.737Z,67.89
2018-10-17T05:21:06.972Z,67.95
2018-10-17T05:22:07.192Z,68.08
2018-10-17T05:23:10.476Z,67.95
2018-10-17T05:24:07.618Z,68.33
2018-10-17T05:25:07.928Z,68.15
2018-10-17T05:26:08.072Z,67.99
2018-10-17T05:27:08.302Z,68.15
2018-10-17T05:28:08.527Z,67.99
2018-10-17T05:29:08.813Z,68.18
2018-10-17T05:30:08.976Z,68.15
2018-10-17T05:31:09.236Z,67.89
2018-10-17T05:32:09.428Z,68.18
2018-10-17T05:33:09.656Z,68.46
2018-10-17T05:34:09.882Z,68.56
2018-10-17T05:35:10.131Z,69.79
2018-10-17T05:36:10.334Z,69.32
2018-10-17T05:37:10.696Z,69.89
2018-10-17T05:38:10.827Z,69.99
2018-10-17T05:39:11.010Z,69.99
2018-10-17T05:40:11.239Z,70.08
2018-10-17T05:41:11.542Z,70.56
2018-10-17T05:42:11.690Z,70.37
2018-10-17T05:43:12.103Z,70.47
2018-10-17T05:44:12.190Z,70.47
2018-10-17T05:45:12.367Z,70.84
2018-10-17T05:46:12.599Z,70.75
2018-10-17T05:47:12.900Z,70.84
2018-10-17T05:48:13.049Z,70.75
2018-10-17T05:49:13.327Z,71.22
2018-10-17T05:50:13.505Z,71.80
2018-10-17T05:51:13.727Z,71.89
2018-10-17T05:52:13.953Z,72.17
2018-10-17T05:53:14.228Z,71.89
2018-10-17T05:54:14.407Z,71.80
2018-10-17T05:55:14.714Z,72.37
2018-10-17T05:56:14.861Z,72.08
2018-10-17T05:57:15.086Z,72.27
2018-10-17T05:58:15.311Z,72.75
2018-10-17T05:59:15.557Z,72.94
2018-10-17T06:00:15.765Z,72.37
2018-10-17T06:01:16.051Z,72.37
2018-10-17T06:02:16.315Z,71.22
2018-10-17T06:03:16.444Z,70.72
2018-10-17T06:04:16.670Z,70.14
2018-10-17T06:05:16.914Z,69.19
2018-10-17T06:06:17.120Z,69.76
2018-10-17T06:07:17.346Z,69.89
2018-10-17T06:08:17.571Z,69.76
2018-10-17T06:09:17.800Z,69.48
2018-10-17T06:10:18.125Z,69.10
2018-10-17T06:11:18.251Z,68.90
2018-10-17T06:12:18.503Z,68.90
2018-10-17T06:13:18.706Z,68.90
2018-10-17T06:14:18.929Z,69.00
2018-10-17T06:15:19.157Z,69.10
2018-10-17T06:16:19.387Z,68.81
2018-10-17T06:17:19.753Z,68.81
2018-10-17T06:18:19.843Z,68.90
2018-10-17T06:19:20.066Z,69.19
2018-10-17T06:20:20.290Z,68.90
2018-10-17T06:21:20.515Z,69.57
2018-10-17T06:22:20.744Z,69.48
2018-10-17T06:23:20.971Z,69.00
2018-10-17T06:24:21.196Z,68.62
2018-10-17T06:25:21.424Z,68.24
2018-10-17T06:26:21.648Z,68.43
2018-10-17T06:27:21.875Z,68.62
2018-10-17T06:28:22.164Z,68.71
2018-10-17T06:29:22.326Z,68.33
2018-10-17T06:30:22.555Z,68.43
2018-10-17T06:31:22.780Z,68.43
2018-10-17T06:32:23.007Z,68.65
2018-10-17T06:33:23.262Z,69.10
2018-10-17T06:34:23.512Z,68.71
2018-10-17T06:35:23.677Z,68.43
2018-10-17T06:36:23.903Z,68.75
2018-10-17T06:37:24.129Z,68.46
2018-10-17T06:38:24.356Z,69.51
2018-10-17T06:39:24.581Z,69.23
2018-10-17T06:40:24.808Z,69.04
2018-10-17T06:41:25.036Z,68.94
2018-10-17T06:42:25.260Z,69.23
2018-10-17T06:43:25.551Z,69.70
2018-10-17T06:44:25.714Z,69.70
2018-10-17T06:45:25.943Z,69.70
2018-10-17T06:46:26.168Z,69.60
2018-10-17T06:47:26.393Z,69.70
2018-10-17T06:48:26.620Z,69.70
2018-10-17T06:49:26.846Z,69.32
2018-10-17T06:50:27.073Z,69.51
2018-10-17T06:51:27.299Z,70.08
2018-10-17T06:52:27.523Z,69.79
2018-10-17T06:53:27.752Z,69.76
2018-10-17T06:54:28.024Z,69.48
2018-10-17T06:55:28.208Z,69.32
2018-10-17T06:56:28.434Z,69.70
2018-10-17T06:57:28.659Z,69.51
2018-10-17T06:58:28.887Z,69.23
2018-10-17T06:59:29.112Z,69.70
2018-10-17T07:00:29.341Z,69.42
2018-10-17T07:01:29.569Z,69.19
2018-10-17T07:02:29.794Z,69.32
2018-10-17T07:03:30.023Z,69.23
2018-10-17T07:04:30.247Z,69.51
2018-10-17T07:05:30.480Z,69.23
2018-10-17T07:06:30.703Z,69.51
2018-10-17T07:07:30.932Z,69.60
2018-10-17T07:08:31.245Z,69.70
2018-10-17T07:09:31.383Z,69.60
2018-10-17T07:10:31.608Z,69.51
2018-10-17T07:11:31.834Z,70.08
2018-10-17T07:12:32.059Z,69.89
2018-10-17T07:13:32.287Z,69.70
2018-10-17T07:14:32.511Z,70.27
2018-10-17T07:15:32.879Z,69.89
2018-10-17T07:16:32.969Z,70.37
2018-10-17T07:17:33.201Z,70.47
2018-10-17T07:18:33.423Z,70.37
2018-10-17T07:19:33.649Z,70.56
2018-10-17T07:20:33.888Z,70.65
2018-10-17T07:21:34.099Z,70.47
2018-10-17T07:22:34.326Z,70.27
2018-10-17T07:23:34.551Z,70.75
2018-10-17T07:24:34.776Z,70.69
2018-10-17T07:25:35.004Z,71.73
2018-10-17T07:26:35.233Z,72.02
2018-10-17T07:27:35.459Z,72.02
2018-10-17T07:28:35.772Z,72.31
2018-10-17T07:29:36.024Z,73.49
2018-10-17T07:30:36.139Z,74.82
2018-10-17T07:31:36.367Z,75.96
2018-10-17T07:32:36.592Z,76.54
2018-10-17T07:33:36.820Z,76.35
2018-10-17T07:34:37.047Z,77.40
2018-10-17T07:35:37.301Z,77.20
2018-10-17T07:36:37.499Z,77.87
2018-10-17T07:37:37.727Z,77.69
2018-10-17T07:38:37.957Z,77.11
2018-10-17T07:39:38.178Z,79.17
2018-10-17T07:40:38.406Z,78.16
2018-10-17T07:41:38.633Z,78.35
2018-10-17T07:42:38.865Z,78.83
2018-10-17T07:43:39.090Z,79.02
2018-10-17T07:44:39.316Z,79.30
2018-10-17T07:45:39.590Z,79.40
2018-10-17T07:46:39.774Z,80.16
2018-10-17T07:47:39.999Z,80.44
2018-10-17T07:48:40.226Z,80.64
2018-10-17T07:49:40.455Z,81.40
2018-10-17T07:50:40.682Z,81.73
2018-10-17T07:51:40.909Z,81.63
2018-10-17T07:52:41.137Z,81.59
2018-10-17T07:53:41.368Z,81.12
2018-10-17T07:54:41.589Z,81.92
2018-10-17T07:55:41.816Z,82.59
2018-10-17T07:56:42.047Z,82.01
2018-10-17T07:57:42.273Z,81.73
2018-10-17T07:58:42.500Z,80.58
2018-10-17T07:59:42.776Z,80.49
2018-10-17T08:00:42.949Z,82.01
2018-10-17T08:01:43.180Z,81.63
2018-10-17T08:02:43.411Z,82.59
2018-10-17T08:03:43.633Z,82.40
2018-10-17T08:04:43.858Z,82.53
2018-10-17T08:05:44.089Z,82.97
2018-10-17T08:06:44.362Z,83.58
2018-10-17T08:07:44.546Z,84.06
2018-10-17T08:08:44.775Z,84.06
2018-10-17T08:09:45.000Z,84.06
2018-10-17T08:10:45.227Z,84.82
2018-10-17T08:11:45.457Z,84.16
2018-10-17T08:12:45.687Z,85.82
2018-10-17T08:13:45.915Z,86.58
2018-10-17T08:14:46.140Z,84.16
2018-10-17T08:15:46.393Z,84.44
2018-10-17T08:16:46.587Z,84.44
2018-10-17T08:17:46.817Z,85.58
2018-10-17T08:18:47.047Z,84.82
2018-10-17T08:19:47.275Z,85.25
2018-10-17T08:20:47.500Z,86.58
2018-10-17T08:21:47.726Z,86.77
2018-10-17T08:22:47.959Z,86.39
2018-10-17T08:23:48.187Z,86.68
2018-10-17T08:24:48.415Z,86.87
2018-10-17T08:25:48.639Z,87.25
2018-10-17T08:26:48.866Z,86.10
2018-10-17T08:27:49.093Z,86.68
2018-10-17T08:28:49.320Z,84.34
2018-10-17T08:29:49.549Z,83.91
2018-10-17T08:30:49.780Z,86.39
2018-10-17T08:31:50.007Z,86.58
2018-10-17T08:32:50.234Z,86.10
2018-10-17T08:33:50.465Z,85.63
2018-10-17T08:34:50.702Z,85.91
2018-10-17T08:35:51.137Z,85.63
2018-10-17T08:36:51.406Z,86.91
2018-10-17T08:37:51.831Z,87.10
2018-10-17T08:38:51.606Z,87.01
2018-10-17T08:39:51.835Z,85.25
2018-10-17T08:40:52.073Z,84.48
2018-10-17T08:41:52.296Z,85.34
2018-10-17T08:42:52.523Z,84.67
2018-10-17T08:43:52.770Z,84.58
2018-10-17T08:44:53.030Z,85.77
2018-10-17T08:45:53.207Z,86.15
2018-10-17T08:46:53.435Z,87.58
2018-10-17T08:47:53.664Z,86.72
2018-10-17T08:48:53.892Z,86.43
2018-10-17T08:49:54.192Z,85.10
2018-10-17T08:50:54.384Z,84.05
2018-10-17T08:51:54.578Z,85.90
2018-10-17T08:52:54.805Z,86.67
2018-10-17T08:53:55.035Z,88.48
2018-10-17T08:54:55.260Z,88.24
2018-10-17T08:55:55.504Z,89.67
2018-10-17T08:56:55.715Z,89.20
2018-10-17T08:57:56.033Z,88.72
2018-10-17T08:58:56.175Z,89.58
2018-10-17T08:59:56.402Z,90.53
2018-10-17T09:00:56.631Z,91.20
2018-10-17T09:01:56.866Z,91.11
2018-10-17T09:02:57.088Z,90.44
2018-10-17T09:03:57.316Z,91.02
2018-10-17T09:04:57.546Z,91.20
2018-10-17T09:05:57.774Z,91.20
2018-10-17T09:06:57.999Z,90.73
2018-10-17T09:07:58.347Z,90.48
2018-10-17T09:08:58.456Z,91.44
2018-10-17T09:09:58.685Z,90.77
2018-10-17T09:10:58.912Z,91.25
2018-10-17T09:11:59.158Z,91.25
2018-10-17T09:12:59.378Z,91.44
2018-10-17T09:13:59.671Z,91.44
2018-10-17T09:14:59.822Z,91.53
2018-10-17T09:16:00.106Z,91.83
2018-10-17T09:17:00.297Z,91.35
2018-10-17T09:18:00.516Z,92.30
2018-10-17T09:19:00.735Z,91.92
2018-10-17T09:20:01.187Z,91.25
2018-10-17T09:21:01.623Z,91.20
2018-10-17T09:22:01.798Z,91.87
2018-10-17T09:23:01.649Z,92.06
2018-10-17T09:24:01.930Z,91.63
2018-10-17T09:25:02.187Z,90.77
2018-10-17T09:26:02.342Z,91.25
2018-10-17T09:27:02.568Z,91.58
2018-10-17T09:28:02.828Z,90.63
2018-10-17T09:29:03.025Z,91.87
2018-10-17T09:30:03.275Z,91.68
2018-10-17T09:31:03.483Z,91.87
2018-10-17T09:32:03.713Z,90.91
2018-10-17T09:33:03.940Z,91.01
2018-10-17T09:34:04.190Z,91.97
2018-10-17T09:35:04.404Z,92.54
2018-10-17T09:36:04.654Z,91.30
2018-10-17T09:37:04.856Z,91.11
2018-10-17T09:38:05.084Z,92.16
2018-10-17T09:39:05.312Z,90.91
2018-10-17T09:40:05.575Z,90.20
2018-10-17T09:41:05.771Z,89.53
2018-10-17T09:42:06.040Z,89.05
2018-10-17T09:43:06.254Z,89.34
2018-10-17T09:44:06.520Z,90.82
2018-10-17T09:45:06.687Z,89.58
2018-10-17T09:46:06.991Z,90.24
2018-10-17T09:47:07.145Z,90.05
2018-10-17T09:48:07.434Z,89.76
2018-10-17T09:49:07.589Z,89.62
2018-10-17T09:50:07.816Z,90.58
2018-10-17T09:51:08.073Z,90.67
2018-10-17T09:52:08.307Z,90.67
2018-10-17T09:53:08.588Z,90.77
2018-10-17T09:54:08.798Z,90.86
2018-10-17T09:55:08.988Z,90.19
2018-10-17T09:56:09.230Z,90.09
2018-10-17T09:57:09.460Z,90.39
2018-10-17T09:58:09.748Z,90.77
2018-10-17T09:59:09.924Z,90.77
2018-10-17T10:00:10.208Z,90.29
2018-10-17T10:01:10.383Z,90.39
2018-10-17T10:02:10.668Z,90.39
2018-10-17T10:03:10.840Z,90.96
2018-10-17T10:04:11.187Z,90.19
2018-10-17T10:05:11.336Z,90.86
2018-10-17T10:06:11.588Z,90.48
2018-10-17T10:07:11.771Z,90.58
2018-10-17T10:08:12.005Z,90.77
2018-10-17T10:09:12.229Z,90.91
2018-10-17T10:10:12.535Z,90.43
2018-10-17T10:11:12.688Z,90.72
2018-10-17T10:12:13.012Z,89.86
2018-10-17T10:13:13.142Z,90.14
2018-10-17T10:14:13.369Z,89.95
2018-10-17T10:15:13.601Z,89.95
2018-10-17T10:16:13.943Z,90.14
2018-10-17T10:17:14.161Z,89.86
2018-10-17T10:18:14.289Z,89.76
2018-10-17T10:19:14.519Z,89.28
2018-10-17T10:20:14.745Z,90.14
2018-10-17T10:21:14.978Z,89.95
2018-10-17T10:22:15.310Z,89.76
2018-10-17T10:23:15.518Z,90.23
2018-10-17T10:24:15.742Z,89.71
2018-10-17T10:25:15.939Z,89.80
2018-10-17T10:26:16.123Z,90.47
2018-10-17T10:27:16.367Z,90.38
2018-10-17T10:28:16.685Z,89.90
2018-10-17T10:29:16.832Z,90.00
2018-10-17T10:30:17.102Z,90.00
2018-10-17T10:31:17.288Z,89.51
2018-10-17T10:32:17.519Z,90.19
2018-10-17T10:33:17.749Z,90.00
2018-10-17T10:34:18.040Z,90.57
2018-10-17T10:35:18.209Z,90.19
2018-10-17T10:36:18.522Z,90.19
2018-10-17T10:37:18.666Z,90.76
2018-10-17T10:38:18.894Z,90.28
2018-10-17T10:39:19.125Z,90.33
2018-10-17T10:40:19.362Z,90.52
2018-10-17T10:41:19.583Z,90.52
2018-10-17T10:42:19.818Z,90.33
2018-10-17T10:43:20.044Z,90.33
2018-10-17T10:44:20.359Z,90.52
2018-10-17T10:45:20.642Z,90.61
2018-10-17T10:46:20.736Z,91.09
2018-10-17T10:47:20.963Z,91.05
2018-10-17T10:48:21.193Z,91.14
2018-10-17T10:49:21.422Z,91.24
2018-10-17T10:50:21.657Z,91.42
2018-10-17T10:51:21.997Z,91.24
2018-10-17T10:52:22.112Z,91.14
2018-10-17T10:53:22.347Z,91.42
2018-10-17T10:54:22.574Z,91.42
2018-10-17T10:55:22.805Z,91.14
2018-10-17T10:56:23.036Z,90.99
2018-10-17T10:57:23.273Z,91.19
2018-10-17T10:58:23.639Z,91.86
2018-10-17T10:59:23.838Z,91.38
2018-10-17T11:00:23.957Z,91.19
2018-10-17T11:01:24.188Z,91.47
2018-10-17T11:02:24.420Z,91.57
2018-10-17T11:03:24.648Z,92.05
2018-10-17T11:04:24.910Z,92.14
2018-10-17T11:05:25.204Z,91.86
2018-10-17T11:06:25.342Z,92.14
2018-10-17T11:07:25.575Z,92.43
2018-10-17T11:08:25.806Z,92.38
2018-10-17T11:09:26.036Z,92.57
2018-10-17T11:10:26.266Z,92.43
2018-10-17T11:11:26.495Z,92.00
2018-10-17T11:12:26.729Z,91.90
2018-10-17T11:13:26.961Z,92.00
2018-10-17T11:14:27.309Z,92.38
2018-10-17T11:15:27.423Z,92.48
2018-10-17T11:16:27.652Z,92.29
2018-10-17T11:17:27.889Z,92.67
2018-10-17T11:18:28.116Z,92.38
2018-10-17T11:19:28.352Z,92.10
2018-10-17T11:20:28.578Z,92.48
2018-10-17T11:21:28.807Z,92.62
2018-10-17T11:22:29.041Z,93.19
2018-10-17T11:23:29.270Z,93.10
2018-10-17T11:24:29.499Z,93.29
2018-10-17T11:25:29.730Z,93.29
2018-10-17T11:26:29.961Z,93.19
2018-10-17T11:27:30.191Z,93.24
2018-10-17T11:28:30.422Z,93.05
2018-10-17T11:29:30.654Z,93.15
2018-10-17T11:30:30.888Z,93.91
2018-10-17T11:31:31.155Z,93.44
2018-10-17T11:32:31.347Z,93.73
2018-10-17T11:33:31.580Z,93.82
2018-10-17T11:34:31.815Z,93.63
2018-10-17T11:35:32.042Z,93.73
2018-10-17T11:36:32.278Z,94.06
2018-10-17T11:37:32.583Z,93.87
2018-10-17T11:38:32.737Z,94.01
2018-10-17T11:39:32.973Z,93.96
2018-10-17T11:40:33.267Z,93.87
2018-10-17T11:41:33.526Z,94.06
2018-10-17T11:42:33.664Z,93.68
2018-10-17T11:43:33.892Z,94.54
2018-10-17T11:44:34.125Z,94.64
2018-10-17T11:45:34.353Z,94.25
2018-10-17T11:46:34.585Z,94.64
2018-10-17T11:47:34.819Z,94.40
2018-10-17T11:48:35.050Z,94.49
2018-10-17T11:49:35.281Z,94.59
2018-10-17T11:50:35.568Z,94.87
2018-10-17T11:51:35.746Z,94.49
2018-10-17T11:52:35.978Z,94.78
2018-10-17T11:53:36.209Z,94.49
2018-10-17T11:54:36.446Z,94.78
2018-10-17T11:55:36.689Z,94.68
2018-10-17T11:56:36.912Z,94.68
2018-10-17T11:57:37.128Z,94.78
2018-10-17T11:58:37.360Z,94.92
2018-10-17T11:59:37.597Z,94.92
2018-10-17T12:00:37.828Z,94.92
2018-10-17T12:01:38.056Z,94.44
2018-10-17T12:02:38.287Z,94.34
2018-10-17T12:03:38.563Z,94.25
2018-10-17T12:04:38.867Z,93.72
2018-10-17T12:05:39.169Z,94.87
2018-10-17T12:06:39.306Z,94.49
2018-10-17T12:07:39.452Z,93.43
2018-10-17T12:08:39.680Z,95.36
2018-10-17T12:09:39.911Z,95.16
2018-10-17T12:10:40.147Z,95.31
2018-10-17T12:11:40.383Z,95.11
2018-10-17T12:12:40.607Z,94.97
2018-10-17T12:13:40.839Z,95.21
2018-10-17T12:14:41.072Z,95.50
2018-10-17T12:15:41.306Z,95.69
2018-10-17T12:16:41.537Z,95.02
2018-10-17T12:17:41.769Z,95.21
2018-10-17T12:18:41.999Z,95.02
2018-10-17T12:19:42.263Z,94.92
2018-10-17T12:20:42.465Z,95.02
2018-10-17T12:21:42.697Z,95.21
2018-10-17T12:22:42.928Z,95.11
2018-10-17T12:23:43.164Z,95.02
2018-10-17T12:24:43.395Z,95.11
2018-10-17T12:25:43.629Z,95.02
2018-10-17T12:26:43.862Z,95.11
2018-10-17T12:27:44.117Z,95.11
2018-10-17T12:28:44.378Z,95.11
2018-10-17T12:29:44.559Z,95.16
2018-10-17T12:30:44.791Z,95.11
2018-10-17T12:31:45.024Z,94.87
2018-10-17T12:32:45.256Z,95.45
2018-10-17T12:33:45.486Z,95.31
2018-10-17T12:34:45.722Z,95.16
2018-10-17T12:35:45.955Z,95.06
2018-10-17T12:36:46.190Z,94.48
2018-10-17T12:37:46.451Z,95.06
2018-10-17T12:38:46.711Z,93.62
2018-10-17T12:39:46.964Z,93.33
2018-10-17T12:40:47.266Z,93.43
2018-10-17T12:41:47.351Z,93.62
2018-10-17T12:42:47.585Z,93.13
2018-10-17T12:43:47.820Z,94.20
2018-10-17T12:44:48.066Z,93.04
2018-10-17T12:45:48.334Z,92.27
2018-10-17T12:46:48.510Z,92.46
2018-10-17T12:47:48.744Z,92.75
2018-10-17T12:48:48.977Z,93.71
2018-10-17T12:49:49.302Z,92.46
2018-10-17T12:50:49.445Z,92.36
2018-10-17T12:51:49.724Z,93.33
2018-10-17T12:52:50.107Z,92.56
2018-10-17T12:53:50.146Z,91.98
2018-10-17T12:54:50.375Z,91.98
2018-10-17T12:55:50.616Z,91.40